Etusivu
METAR-TAF:

METAR-TAF

Lentoasemat :

Khartum, Sudan

Leveyspiiri: 15-36N, Pituuspiiri: 032-33E, korkeus merenpinnasta: 382 m

Tämänhetkinen sää

Tämä raportti tehtiin 17 minuuttia sitten, kello 09.00 UTC
Tuuli 12 kn pohjoisesta
Lämpötila 23°C
Kosteus 20%
Ilmanpaine 1018 hPa
Näkyvyys 10 km tai enemmän
ei pilviä alle 1500 m:ssä eikä cumulonimbus-pilviä

METAR: HSSS 200900Z 36012KT CAVOK 23/M01 Q1018 NOSIG

Aika: 11:17 (09:17 UTC)

Sääennuste

Tämä raportti tehtiin 4 tuntia ja 17 minuuttia sitten, kello 05.00 UTC
Ennuste voimassa 20. päivästä klo 06 UTC - 21. päivään klo 12 UTC
Tuuli 10 kn pohjoisesta puuskistuen 20 kn:hen
Näkyvyys 10 km tai enemmän
ei pilviä alle 1500 m:ssä eikä cumulonimbus-pilviä

TAF: HSSS 200500Z 2006/2112 35010G20KT CAVOK

Säähavainnot ja -ennusteet yli 4000 lentoasemalta (METAR- ja TAF-raportit).

Käytössä olevat sääasemat on merkitty karttaan keltaisilla ja punaisilla pisteillä.

Aseta hiiri pisteen päälle nähdäksesi sääaseman nimen.

Klikkaa sitten nähdäksesi säähavainnot ja -ennusteet.

Kartan vaihtaminen: klikkaa mustalla rastilla varustettuja vihreitä pisteitä, niin voit zoomata sisään; viivalla varustettua vihreää pistettä, niin voit zoomata ulos tai vihreitä nuolia, niin pääset viereisille kartoille.


METAR-TAF: